world map with HTY marked

HTY - Airport

This information may not be accurate or current and is not valid for navigation or flight planning. No warranty of fitness for any purpose is made or implied.

flag of Turkey

Donate via PayPal

Additional information is available on the NEW Great Circle Mapper

Location
City:  Antakya, Turkey
Near (Alt.):Hatay
Name:Hatay Airport
ICAO / IATA:LTDA / HTY

Details
Type:Airport (Aerodrome, Airfield)
Latitude:36°21'38"N (36.360500)
Longitude:36°17'07"E (36.285389)
Elevation:25 ft (8 m)
Runways:1
Longest:9990 ft (3045 m)

Time
Timezone:UTC+3 (DST+5)
Local Time:

Weather
METAR:LTDA  041350Z 10010KT 9999 FEW035 BKN180 15/07 Q1025 NOSIG

Related Locations
Nearby:
Farthest:RVV: 11540 mi / 18571 km
Raivavae, Tubuai Islands, Austral Islands, PF

Find:

   beyond  
but within

Other Information
Maps:
Sources:

  


 


Great Circle Mapper   Great Circle Mapper
Great Circle Mapper FAQ   Great Circle Mapper FAQ
  Karl's Home Page
KLSē   KLSē Home
   GC on Facebook
Airlines of the World   Airlines of the World
Donate via PayPal


Copyright © 2004-2019, Karl L. Swartz. All rights reserved.
All trademarks mentioned herein belong to their respective owners.

Please see credits for attribution and copyright information.

Karl Swartz <karl@kls2.com>
  Powered by FreeBSD
Valid HTML 4.01!
Labeled with ICRA
hCard Microformat
Geo Microformat